sensor_id;sensor_type;location;lat;lon;timestamp;temperature;humidity
13585;DHT22;6863;48.402;9.994;2024-03-02T00:00:36;5.00;99.90
13585;DHT22;6863;48.402;9.994;2024-03-02T00:03:02;5.00;99.90
13585;DHT22;6863;48.402;9.994;2024-03-02T00:05:28;5.00;99.90
13585;DHT22;6863;48.402;9.994;2024-03-02T00:07:58;5.00;99.90
13585;DHT22;6863;48.402;9.994;2024-03-02T00:10:41;5.10;99.90
13585;DHT22;6863;48.402;9.994;2024-03-02T00:13:08;5.10;99.90
13585;DHT22;6863;48.402;9.994;2024-03-02T00:15:46;5.10;99.90
13585;DHT22;6863;48.402;9.994;2024-03-02T00:18:18;5.00;99.90
13585;DHT22;6863;48.402;9.994;2024-03-02T00:20:44;5.00;99.90
13585;DHT22;6863;48.402;9.994;2024-03-02T00:23:14;5.00;99.90
13585;DHT22;6863;48.402;9.994;2024-03-02T00:25:50;4.90;99.90
13585;DHT22;6863;48.402;9.994;2024-03-02T00:28:25;5.00;99.90
13585;DHT22;6863;48.402;9.994;2024-03-02T00:31:01;5.00;99.90
13585;DHT22;6863;48.402;9.994;2024-03-02T00:33:33;5.00;99.90
13585;DHT22;6863;48.402;9.994;2024-03-02T00:36:00;5.00;99.90
13585;DHT22;6863;48.402;9.994;2024-03-02T00:38:27;5.00;99.90
13585;DHT22;6863;48.402;9.994;2024-03-02T00:40:53;5.00;99.90
13585;DHT22;6863;48.402;9.994;2024-03-02T00:46:05;5.00;99.90
13585;DHT22;6863;48.402;9.994;2024-03-02T00:48:31;5.10;99.90
13585;DHT22;6863;48.402;9.994;2024-03-02T00:50:58;5.10;99.90
13585;DHT22;6863;48.402;9.994;2024-03-02T00:53:26;5.10;99.90
13585;DHT22;6863;48.402;9.994;2024-03-02T00:55:52;5.10;99.90
13585;DHT22;6863;48.402;9.994;2024-03-02T00:58:18;5.00;99.90
13585;DHT22;6863;48.402;9.994;2024-03-02T01:00:43;5.00;99.90
13585;DHT22;6863;48.402;9.994;2024-03-02T01:03:09;5.00;99.90
13585;DHT22;6863;48.402;9.994;2024-03-02T01:05:36;5.00;99.90
13585;DHT22;6863;48.402;9.994;2024-03-02T01:08:02;5.00;99.90
13585;DHT22;6863;48.402;9.994;2024-03-02T01:10:27;5.00;99.90
13585;DHT22;6863;48.402;9.994;2024-03-02T01:12:53;5.00;99.90
13585;DHT22;6863;48.402;9.994;2024-03-02T01:15:18;5.00;99.90
13585;DHT22;6863;48.402;9.994;2024-03-02T01:17:44;5.00;99.90
13585;DHT22;6863;48.402;9.994;2024-03-02T01:20:10;5.00;99.90
13585;DHT22;6863;48.402;9.994;2024-03-02T01:22:36;5.00;99.90
13585;DHT22;6863;48.402;9.994;2024-03-02T01:25:03;5.00;99.90
13585;DHT22;6863;48.402;9.994;2024-03-02T01:27:28;4.90;99.90
13585;DHT22;6863;48.402;9.994;2024-03-02T01:29:54;4.90;99.90
13585;DHT22;6863;48.402;9.994;2024-03-02T01:32:20;5.00;99.90
13585;DHT22;6863;48.402;9.994;2024-03-02T01:34:45;5.00;99.90
13585;DHT22;6863;48.402;9.994;2024-03-02T01:37:11;5.00;99.90
13585;DHT22;6863;48.402;9.994;2024-03-02T01:39:36;5.00;99.90
13585;DHT22;6863;48.402;9.994;2024-03-02T01:42:02;5.00;99.90
13585;DHT22;6863;48.402;9.994;2024-03-02T01:44:27;5.00;99.90
13585;DHT22;6863;48.402;9.994;2024-03-02T01:46:53;5.00;99.90
13585;DHT22;6863;48.402;9.994;2024-03-02T01:49:19;5.00;99.90
13585;DHT22;6863;48.402;9.994;2024-03-02T01:51:44;5.00;99.90
13585;DHT22;6863;48.402;9.994;2024-03-02T01:54:10;5.00;99.90
13585;DHT22;6863;48.402;9.994;2024-03-02T01:56:35;5.00;99.90
13585;DHT22;6863;48.402;9.994;2024-03-02T01:59:01;5.00;99.90
13585;DHT22;6863;48.402;9.994;2024-03-02T02:01:27;5.00;99.90
13585;DHT22;6863;48.402;9.994;2024-03-02T02:03:53;5.00;99.90
13585;DHT22;6863;48.402;9.994;2024-03-02T02:06:18;5.00;99.90
13585;DHT22;6863;48.402;9.994;2024-03-02T02:08:44;5.00;99.90
13585;DHT22;6863;48.402;9.994;2024-03-02T02:11:10;5.00;99.90
13585;DHT22;6863;48.402;9.994;2024-03-02T02:13:36;5.00;99.90
13585;DHT22;6863;48.402;9.994;2024-03-02T02:16:06;5.10;99.90
13585;DHT22;6863;48.402;9.994;2024-03-02T02:18:32;5.10;99.90
13585;DHT22;6863;48.402;9.994;2024-03-02T02:20:58;5.00;99.90
13585;DHT22;6863;48.402;9.994;2024-03-02T02:23:23;5.00;99.90
13585;DHT22;6863;48.402;9.994;2024-03-02T02:25:49;5.00;99.90
13585;DHT22;6863;48.402;9.994;2024-03-02T02:28:14;5.00;99.90
13585;DHT22;6863;48.402;9.994;2024-03-02T02:30:40;5.00;99.90
13585;DHT22;6863;48.402;9.994;2024-03-02T02:33:05;5.00;99.90
13585;DHT22;6863;48.402;9.994;2024-03-02T02:35:31;5.00;99.90
13585;DHT22;6863;48.402;9.994;2024-03-02T02:37:57;5.00;99.90
13585;DHT22;6863;48.402;9.994;2024-03-02T02:40:24;4.90;99.90
13585;DHT22;6863;48.402;9.994;2024-03-02T02:42:49;4.90;99.90
13585;DHT22;6863;48.402;9.994;2024-03-02T02:45:17;4.90;99.90
13585;DHT22;6863;48.402;9.994;2024-03-02T02:47:43;4.90;99.90
13585;DHT22;6863;48.402;9.994;2024-03-02T02:50:11;4.90;99.90
13585;DHT22;6863;48.402;9.994;2024-03-02T02:52:38;4.80;99.90
13585;DHT22;6863;48.402;9.994;2024-03-02T02:55:06;4.90;99.90
13585;DHT22;6863;48.402;9.994;2024-03-02T02:57:33;4.90;99.90
13585;DHT22;6863;48.402;9.994;2024-03-02T03:00:04;4.80;99.90
13585;DHT22;6863;48.402;9.994;2024-03-02T03:02:34;4.80;99.90
13585;DHT22;6863;48.402;9.994;2024-03-02T03:05:00;4.80;99.90
13585;DHT22;6863;48.402;9.994;2024-03-02T03:07:25;4.80;99.90
13585;DHT22;6863;48.402;9.994;2024-03-02T03:09:51;4.80;99.90
13585;DHT22;6863;48.402;9.994;2024-03-02T03:12:16;4.90;99.90
13585;DHT22;6863;48.402;9.994;2024-03-02T03:14:42;4.90;99.90
13585;DHT22;6863;48.402;9.994;2024-03-02T03:17:08;4.80;99.90
13585;DHT22;6863;48.402;9.994;2024-03-02T03:19:33;4.80;99.90
13585;DHT22;6863;48.402;9.994;2024-03-02T03:21:59;4.80;99.90
13585;DHT22;6863;48.402;9.994;2024-03-02T03:24:25;4.80;99.90
13585;DHT22;6863;48.402;9.994;2024-03-02T03:26:50;4.80;99.90
13585;DHT22;6863;48.402;9.994;2024-03-02T03:29:16;4.90;99.90
13585;DHT22;6863;48.402;9.994;2024-03-02T03:31:41;4.90;99.90
13585;DHT22;6863;48.402;9.994;2024-03-02T03:34:07;4.80;99.90
13585;DHT22;6863;48.402;9.994;2024-03-02T03:36:32;4.80;99.90
13585;DHT22;6863;48.402;9.994;2024-03-02T03:38:58;4.80;99.90
13585;DHT22;6863;48.402;9.994;2024-03-02T03:41:23;4.80;99.90
13585;DHT22;6863;48.402;9.994;2024-03-02T03:43:49;4.80;99.90
13585;DHT22;6863;48.402;9.994;2024-03-02T03:46:15;4.80;99.90
13585;DHT22;6863;48.402;9.994;2024-03-02T03:48:40;4.80;99.90
13585;DHT22;6863;48.402;9.994;2024-03-02T03:51:07;4.70;99.90
13585;DHT22;6863;48.402;9.994;2024-03-02T03:53:32;4.60;99.90
13585;DHT22;6863;48.402;9.994;2024-03-02T03:55:58;4.60;99.90
13585;DHT22;6863;48.402;9.994;2024-03-02T03:58:24;4.60;99.90
13585;DHT22;6863;48.402;9.994;2024-03-02T04:00:49;4.60;99.90
13585;DHT22;6863;48.402;9.994;2024-03-02T04:03:15;4.60;99.90
13585;DHT22;6863;48.402;9.994;2024-03-02T04:05:40;4.60;99.90
13585;DHT22;6863;48.402;9.994;2024-03-02T04:08:06;4.60;99.90
13585;DHT22;6863;48.402;9.994;2024-03-02T04:10:32;4.60;99.90
13585;DHT22;6863;48.402;9.994;2024-03-02T04:12:57;4.50;99.90
13585;DHT22;6863;48.402;9.994;2024-03-02T04:15:23;4.60;99.90
13585;DHT22;6863;48.402;9.994;2024-03-02T04:17:49;4.60;99.90
13585;DHT22;6863;48.402;9.994;2024-03-02T04:20:14;4.60;99.90
13585;DHT22;6863;48.402;9.994;2024-03-02T04:22:40;4.60;99.90
13585;DHT22;6863;48.402;9.994;2024-03-02T04:25:05;4.60;99.90
13585;DHT22;6863;48.402;9.994;2024-03-02T04:27:32;4.60;99.90
13585;DHT22;6863;48.402;9.994;2024-03-02T04:29:58;4.60;99.90
13585;DHT22;6863;48.402;9.994;2024-03-02T04:32:26;4.60;99.90
13585;DHT22;6863;48.402;9.994;2024-03-02T04:34:51;4.60;99.90
13585;DHT22;6863;48.402;9.994;2024-03-02T04:37:17;4.50;99.90
13585;DHT22;6863;48.402;9.994;2024-03-02T04:39:43;4.50;99.90
13585;DHT22;6863;48.402;9.994;2024-03-02T04:42:08;4.60;99.90
13585;DHT22;6863;48.402;9.994;2024-03-02T04:44:34;4.60;99.90
13585;DHT22;6863;48.402;9.994;2024-03-02T04:46:59;4.60;99.90
13585;DHT22;6863;48.402;9.994;2024-03-02T04:49:25;4.70;99.90
13585;DHT22;6863;48.402;9.994;2024-03-02T04:51:51;4.70;99.90
13585;DHT22;6863;48.402;9.994;2024-03-02T04:54:16;4.70;99.90
13585;DHT22;6863;48.402;9.994;2024-03-02T04:56:42;4.70;99.90
13585;DHT22;6863;48.402;9.994;2024-03-02T04:59:15;4.70;99.90
13585;DHT22;6863;48.402;9.994;2024-03-02T05:01:41;4.70;99.90
13585;DHT22;6863;48.402;9.994;2024-03-02T05:04:07;4.80;99.90
13585;DHT22;6863;48.402;9.994;2024-03-02T05:06:33;4.80;99.90
13585;DHT22;6863;48.402;9.994;2024-03-02T05:08:58;4.70;99.90
13585;DHT22;6863;48.402;9.994;2024-03-02T05:11:24;4.70;99.90
13585;DHT22;6863;48.402;9.994;2024-03-02T05:14:05;4.60;99.90
13585;DHT22;6863;48.402;9.994;2024-03-02T05:16:35;4.60;99.90
13585;DHT22;6863;48.402;9.994;2024-03-02T05:19:01;4.60;99.90
13585;DHT22;6863;48.402;9.994;2024-03-02T05:21:26;4.50;99.90
13585;DHT22;6863;48.402;9.994;2024-03-02T05:23:52;4.50;99.90
13585;DHT22;6863;48.402;9.994;2024-03-02T05:26:18;4.50;99.90
13585;DHT22;6863;48.402;9.994;2024-03-02T05:28:43;4.50;99.90
13585;DHT22;6863;48.402;9.994;2024-03-02T05:31:10;4.40;99.90
13585;DHT22;6863;48.402;9.994;2024-03-02T05:33:39;4.40;99.90
13585;DHT22;6863;48.402;9.994;2024-03-02T05:36:05;4.40;99.90
13585;DHT22;6863;48.402;9.994;2024-03-02T05:38:32;4.40;99.90
13585;DHT22;6863;48.402;9.994;2024-03-02T05:40:57;4.40;99.90
13585;DHT22;6863;48.402;9.994;2024-03-02T05:43:23;4.40;99.90
13585;DHT22;6863;48.402;9.994;2024-03-02T05:45:48;4.40;99.90
13585;DHT22;6863;48.402;9.994;2024-03-02T05:48:14;4.30;99.90
13585;DHT22;6863;48.402;9.994;2024-03-02T05:50:40;4.30;99.90
13585;DHT22;6863;48.402;9.994;2024-03-02T05:53:05;4.30;99.90
13585;DHT22;6863;48.402;9.994;2024-03-02T05:55:31;4.30;99.90
13585;DHT22;6863;48.402;9.994;2024-03-02T05:57:57;4.30;99.90
13585;DHT22;6863;48.402;9.994;2024-03-02T06:00:31;4.30;99.90
13585;DHT22;6863;48.402;9.994;2024-03-02T06:02:57;4.30;99.90
13585;DHT22;6863;48.402;9.994;2024-03-02T06:05:22;4.40;99.90
13585;DHT22;6863;48.402;9.994;2024-03-02T06:07:48;4.40;99.90
13585;DHT22;6863;48.402;9.994;2024-03-02T06:10:13;4.30;99.90
13585;DHT22;6863;48.402;9.994;2024-03-02T06:12:40;4.30;99.90
13585;DHT22;6863;48.402;9.994;2024-03-02T06:15:06;4.30;99.90
13585;DHT22;6863;48.402;9.994;2024-03-02T06:17:32;4.30;99.90
13585;DHT22;6863;48.402;9.994;2024-03-02T06:19:57;4.30;99.90
13585;DHT22;6863;48.402;9.994;2024-03-02T06:22:23;4.30;99.90
13585;DHT22;6863;48.402;9.994;2024-03-02T06:24:50;4.40;99.90
13585;DHT22;6863;48.402;9.994;2024-03-02T06:27:16;4.40;99.90
13585;DHT22;6863;48.402;9.994;2024-03-02T06:29:41;4.40;99.90
13585;DHT22;6863;48.402;9.994;2024-03-02T06:32:07;4.50;99.90
13585;DHT22;6863;48.402;9.994;2024-03-02T06:34:33;4.40;99.90
13585;DHT22;6863;48.402;9.994;2024-03-02T06:36:58;4.50;99.90
13585;DHT22;6863;48.402;9.994;2024-03-02T06:39:24;4.50;99.90
13585;DHT22;6863;48.402;9.994;2024-03-02T06:41:51;4.50;99.90
13585;DHT22;6863;48.402;9.994;2024-03-02T06:44:17;4.40;99.90
13585;DHT22;6863;48.402;9.994;2024-03-02T06:46:42;4.40;99.90
13585;DHT22;6863;48.402;9.994;2024-03-02T06:49:08;4.50;99.90
13585;DHT22;6863;48.402;9.994;2024-03-02T06:51:35;4.60;99.90
13585;DHT22;6863;48.402;9.994;2024-03-02T06:54:01;4.60;99.90
13585;DHT22;6863;48.402;9.994;2024-03-02T06:56:26;4.50;99.90
13585;DHT22;6863;48.402;9.994;2024-03-02T06:58:52;4.50;99.90
13585;DHT22;6863;48.402;9.994;2024-03-02T07:01:17;4.50;99.90
13585;DHT22;6863;48.402;9.994;2024-03-02T07:03:43;4.60;99.90
13585;DHT22;6863;48.402;9.994;2024-03-02T07:06:09;4.60;99.90
13585;DHT22;6863;48.402;9.994;2024-03-02T07:08:35;4.70;99.90
13585;DHT22;6863;48.402;9.994;2024-03-02T07:11:00;4.60;99.90
13585;DHT22;6863;48.402;9.994;2024-03-02T07:13:26;4.50;99.90
13585;DHT22;6863;48.402;9.994;2024-03-02T07:15:52;4.50;99.90
13585;DHT22;6863;48.402;9.994;2024-03-02T07:18:30;4.60;99.90
13585;DHT22;6863;48.402;9.994;2024-03-02T07:20:56;4.70;99.90
13585;DHT22;6863;48.402;9.994;2024-03-02T07:23:24;4.80;99.90
13585;DHT22;6863;48.402;9.994;2024-03-02T07:25:53;5.00;99.90
13585;DHT22;6863;48.402;9.994;2024-03-02T07:28:22;5.00;99.90
13585;DHT22;6863;48.402;9.994;2024-03-02T07:30:57;4.90;99.90
13585;DHT22;6863;48.402;9.994;2024-03-02T07:33:24;4.90;99.90
13585;DHT22;6863;48.402;9.994;2024-03-02T07:35:49;4.90;99.90
13585;DHT22;6863;48.402;9.994;2024-03-02T07:38:15;4.90;99.90
13585;DHT22;6863;48.402;9.994;2024-03-02T07:40:40;5.00;99.90
13585;DHT22;6863;48.402;9.994;2024-03-02T07:43:06;5.00;99.90
13585;DHT22;6863;48.402;9.994;2024-03-02T07:45:32;5.00;99.90
13585;DHT22;6863;48.402;9.994;2024-03-02T07:47:57;5.10;99.90
13585;DHT22;6863;48.402;9.994;2024-03-02T07:50:23;5.30;99.90
13585;DHT22;6863;48.402;9.994;2024-03-02T07:52:49;5.20;99.90
13585;DHT22;6863;48.402;9.994;2024-03-02T07:55:14;5.20;99.90
13585;DHT22;6863;48.402;9.994;2024-03-02T07:57:40;5.30;99.90
13585;DHT22;6863;48.402;9.994;2024-03-02T08:00:06;5.30;99.90
13585;DHT22;6863;48.402;9.994;2024-03-02T08:02:32;5.40;99.90
13585;DHT22;6863;48.402;9.994;2024-03-02T08:04:57;5.50;99.90
13585;DHT22;6863;48.402;9.994;2024-03-02T08:07:23;5.50;99.90
13585;DHT22;6863;48.402;9.994;2024-03-02T08:09:48;5.40;99.90
13585;DHT22;6863;48.402;9.994;2024-03-02T08:12:14;5.50;99.90
13585;DHT22;6863;48.402;9.994;2024-03-02T08:14:39;5.40;99.90
13585;DHT22;6863;48.402;9.994;2024-03-02T08:17:05;5.40;99.90
13585;DHT22;6863;48.402;9.994;2024-03-02T08:19:35;5.50;99.90
13585;DHT22;6863;48.402;9.994;2024-03-02T08:22:01;5.40;99.90
13585;DHT22;6863;48.402;9.994;2024-03-02T08:24:26;5.40;99.90
13585;DHT22;6863;48.402;9.994;2024-03-02T08:26:52;5.30;99.90
13585;DHT22;6863;48.402;9.994;2024-03-02T08:29:18;5.30;99.90
13585;DHT22;6863;48.402;9.994;2024-03-02T08:31:43;5.30;99.90
13585;DHT22;6863;48.402;9.994;2024-03-02T08:34:09;5.40;99.90
13585;DHT22;6863;48.402;9.994;2024-03-02T08:36:34;5.30;99.90
13585;DHT22;6863;48.402;9.994;2024-03-02T08:39:01;5.40;99.90
13585;DHT22;6863;48.402;9.994;2024-03-02T08:41:27;5.30;99.90
13585;DHT22;6863;48.402;9.994;2024-03-02T08:43:53;5.40;99.90
13585;DHT22;6863;48.402;9.994;2024-03-02T08:46:18;5.60;99.90
13585;DHT22;6863;48.402;9.994;2024-03-02T08:48:44;5.70;99.90
13585;DHT22;6863;48.402;9.994;2024-03-02T08:51:10;5.90;99.90
13585;DHT22;6863;48.402;9.994;2024-03-02T08:53:36;5.80;99.90
13585;DHT22;6863;48.402;9.994;2024-03-02T08:56:02;5.90;99.90
13585;DHT22;6863;48.402;9.994;2024-03-02T08:58:27;5.80;99.90
13585;DHT22;6863;48.402;9.994;2024-03-02T09:00:53;6.00;99.90
13585;DHT22;6863;48.402;9.994;2024-03-02T09:03:18;6.20;99.90
13585;DHT22;6863;48.402;9.994;2024-03-02T09:05:44;6.40;99.90
13585;DHT22;6863;48.402;9.994;2024-03-02T09:08:10;6.60;99.90
13585;DHT22;6863;48.402;9.994;2024-03-02T09:10:35;6.80;99.90
13585;DHT22;6863;48.402;9.994;2024-03-02T09:13:01;6.60;99.90
13585;DHT22;6863;48.402;9.994;2024-03-02T09:15:27;6.80;99.90
13585;DHT22;6863;48.402;9.994;2024-03-02T09:17:52;7.20;99.90
13585;DHT22;6863;48.402;9.994;2024-03-02T09:20:18;7.30;99.90
13585;DHT22;6863;48.402;9.994;2024-03-02T09:22:43;7.40;99.90
13585;DHT22;6863;48.402;9.994;2024-03-02T09:25:09;7.50;99.90
13585;DHT22;6863;48.402;9.994;2024-03-02T09:27:38;7.80;99.90
13585;DHT22;6863;48.402;9.994;2024-03-02T09:30:13;8.20;99.90
13585;DHT22;6863;48.402;9.994;2024-03-02T09:35:07;9.00;99.90
13585;DHT22;6863;48.402;9.994;2024-03-02T09:37:33;9.40;99.90
13585;DHT22;6863;48.402;9.994;2024-03-02T09:39:59;9.30;99.90
13585;DHT22;6863;48.402;9.994;2024-03-02T09:42:24;9.50;99.90
13585;DHT22;6863;48.402;9.994;2024-03-02T09:44:51;9.60;99.90
13585;DHT22;6863;48.402;9.994;2024-03-02T09:47:17;9.80;99.90
13585;DHT22;6863;48.402;9.994;2024-03-02T09:49:43;10.00;99.90
13585;DHT22;6863;48.402;9.994;2024-03-02T09:52:10;10.40;99.90
13585;DHT22;6863;48.402;9.994;2024-03-02T09:54:36;10.50;99.90
13585;DHT22;6863;48.402;9.994;2024-03-02T09:57:02;10.60;99.90
13585;DHT22;6863;48.402;9.994;2024-03-02T09:59:28;11.00;99.90
13585;DHT22;6863;48.402;9.994;2024-03-02T10:02:04;10.90;99.20
13585;DHT22;6863;48.402;9.994;2024-03-02T10:04:32;11.30;99.70
13585;DHT22;6863;48.402;9.994;2024-03-02T10:07:18;11.70;98.00
13585;DHT22;6863;48.402;9.994;2024-03-02T10:09:45;11.60;97.70
13585;DHT22;6863;48.402;9.994;2024-03-02T10:12:13;11.00;98.30
13585;DHT22;6863;48.402;9.994;2024-03-02T10:14:40;10.70;99.10
13585;DHT22;6863;48.402;9.994;2024-03-02T10:17:13;10.80;99.40
13585;DHT22;6863;48.402;9.994;2024-03-02T10:19:39;10.90;99.20
13585;DHT22;6863;48.402;9.994;2024-03-02T10:22:07;11.60;98.70
13585;DHT22;6863;48.402;9.994;2024-03-02T10:24:41;12.50;97.10
13585;DHT22;6863;48.402;9.994;2024-03-02T10:27:17;13.20;95.60
13585;DHT22;6863;48.402;9.994;2024-03-02T10:29:46;13.00;95.10
13585;DHT22;6863;48.402;9.994;2024-03-02T10:32:12;13.30;95.00
13585;DHT22;6863;48.402;9.994;2024-03-02T10:34:51;13.40;94.50
13585;DHT22;6863;48.402;9.994;2024-03-02T10:37:17;16.60;91.30
13585;DHT22;6863;48.402;9.994;2024-03-02T10:39:42;18.60;84.10
13585;DHT22;6863;48.402;9.994;2024-03-02T10:42:08;18.40;77.90
13585;DHT22;6863;48.402;9.994;2024-03-02T10:44:34;18.00;76.90
13585;DHT22;6863;48.402;9.994;2024-03-02T10:47:02;18.50;77.00
13585;DHT22;6863;48.402;9.994;2024-03-02T10:49:30;19.30;72.60
13585;DHT22;6863;48.402;9.994;2024-03-02T10:51:56;19.50;71.10
13585;DHT22;6863;48.402;9.994;2024-03-02T10:54:22;20.50;67.50
13585;DHT22;6863;48.402;9.994;2024-03-02T10:56:53;20.80;66.00
13585;DHT22;6863;48.402;9.994;2024-03-02T11:01:58;22.00;60.70
13585;DHT22;6863;48.402;9.994;2024-03-02T11:04:25;23.80;56.70
13585;DHT22;6863;48.402;9.994;2024-03-02T11:06:52;24.20;56.00
13585;DHT22;6863;48.402;9.994;2024-03-02T11:09:21;26.50;49.60
13585;DHT22;6863;48.402;9.994;2024-03-02T11:12:54;27.90;44.70
13585;DHT22;6863;48.402;9.994;2024-03-02T11:14:47;27.40;43.80
13585;DHT22;6863;48.402;9.994;2024-03-02T11:17:15;27.40;44.40
13585;DHT22;6863;48.402;9.994;2024-03-02T11:19:41;28.30;43.00
13585;DHT22;6863;48.402;9.994;2024-03-02T11:22:09;28.40;40.60
13585;DHT22;6863;48.402;9.994;2024-03-02T11:24:34;28.20;41.80
13585;DHT22;6863;48.402;9.994;2024-03-02T11:27:01;29.50;39.70
13585;DHT22;6863;48.402;9.994;2024-03-02T11:32:03;27.70;40.30
13585;DHT22;6863;48.402;9.994;2024-03-02T11:34:34;28.20;40.70
13585;DHT22;6863;48.402;9.994;2024-03-02T11:37:04;28.90;40.00
13585;DHT22;6863;48.402;9.994;2024-03-02T11:39:30;31.30;36.90
13585;DHT22;6863;48.402;9.994;2024-03-02T11:41:56;32.70;33.70
13585;DHT22;6863;48.402;9.994;2024-03-02T11:44:24;29.40;36.30
13585;DHT22;6863;48.402;9.994;2024-03-02T11:47:05;30.40;35.20
13585;DHT22;6863;48.402;9.994;2024-03-02T11:49:45;29.60;36.10
13585;DHT22;6863;48.402;9.994;2024-03-02T11:52:12;29.90;36.80
13585;DHT22;6863;48.402;9.994;2024-03-02T11:54:40;31.70;33.30
13585;DHT22;6863;48.402;9.994;2024-03-02T11:57:06;32.40;31.30
13585;DHT22;6863;48.402;9.994;2024-03-02T11:59:32;31.50;31.60
13585;DHT22;6863;48.402;9.994;2024-03-02T12:01:58;32.20;30.40
13585;DHT22;6863;48.402;9.994;2024-03-02T12:04:24;33.80;29.30
13585;DHT22;6863;48.402;9.994;2024-03-02T12:06:59;35.20;28.20
13585;DHT22;6863;48.402;9.994;2024-03-02T12:09:25;35.90;27.20
13585;DHT22;6863;48.402;9.994;2024-03-02T12:12:01;35.40;27.50
13585;DHT22;6863;48.402;9.994;2024-03-02T12:14:26;34.70;28.00
13585;DHT22;6863;48.402;9.994;2024-03-02T12:16:54;31.90;30.80
13585;DHT22;6863;48.402;9.994;2024-03-02T12:19:21;31.30;32.10
13585;DHT22;6863;48.402;9.994;2024-03-02T12:21:46;31.60;31.50
13585;DHT22;6863;48.402;9.994;2024-03-02T12:24:12;30.20;33.30
13585;DHT22;6863;48.402;9.994;2024-03-02T12:26:37;31.40;32.60
13585;DHT22;6863;48.402;9.994;2024-03-02T12:29:03;32.00;32.00
13585;DHT22;6863;48.402;9.994;2024-03-02T12:31:28;32.20;31.70
13585;DHT22;6863;48.402;9.994;2024-03-02T12:33:54;33.90;30.40
13585;DHT22;6863;48.402;9.994;2024-03-02T12:36:20;34.50;29.20
13585;DHT22;6863;48.402;9.994;2024-03-02T12:38:45;34.40;29.30
13585;DHT22;6863;48.402;9.994;2024-03-02T12:41:14;31.20;32.00
13585;DHT22;6863;48.402;9.994;2024-03-02T12:43:40;30.20;33.90
13585;DHT22;6863;48.402;9.994;2024-03-02T12:46:05;29.70;34.50
13585;DHT22;6863;48.402;9.994;2024-03-02T12:48:30;29.90;35.40
13585;DHT22;6863;48.402;9.994;2024-03-02T12:50:56;31.90;33.00
13585;DHT22;6863;48.402;9.994;2024-03-02T12:53:21;30.50;34.30
13585;DHT22;6863;48.402;9.994;2024-03-02T12:55:47;30.80;34.00
13585;DHT22;6863;48.402;9.994;2024-03-02T12:58:19;30.50;34.10
13585;DHT22;6863;48.402;9.994;2024-03-02T13:00:46;30.80;34.50
13585;DHT22;6863;48.402;9.994;2024-03-02T13:03:12;32.10;33.20
13585;DHT22;6863;48.402;9.994;2024-03-02T13:05:39;34.50;29.80
13585;DHT22;6863;48.402;9.994;2024-03-02T13:08:05;33.70;30.40
13585;DHT22;6863;48.402;9.994;2024-03-02T13:10:32;35.60;28.90
13585;DHT22;6863;48.402;9.994;2024-03-02T13:12:58;33.80;29.90
13585;DHT22;6863;48.402;9.994;2024-03-02T13:15:23;31.60;32.10
13585;DHT22;6863;48.402;9.994;2024-03-02T13:17:49;32.10;32.00
13585;DHT22;6863;48.402;9.994;2024-03-02T13:20:16;32.80;31.30
13585;DHT22;6863;48.402;9.994;2024-03-02T13:22:43;34.40;29.70
13585;DHT22;6863;48.402;9.994;2024-03-02T13:25:09;33.10;29.80
13585;DHT22;6863;48.402;9.994;2024-03-02T13:27:36;31.60;32.70
13585;DHT22;6863;48.402;9.994;2024-03-02T13:30:02;32.80;31.20
13585;DHT22;6863;48.402;9.994;2024-03-02T13:32:28;31.80;32.10
13585;DHT22;6863;48.402;9.994;2024-03-02T13:34:53;30.80;33.70
13585;DHT22;6863;48.402;9.994;2024-03-02T13:37:20;30.00;34.20
13585;DHT22;6863;48.402;9.994;2024-03-02T13:39:45;29.80;35.40
13585;DHT22;6863;48.402;9.994;2024-03-02T13:42:11;31.00;33.70
13585;DHT22;6863;48.402;9.994;2024-03-02T13:44:38;31.80;32.60
13585;DHT22;6863;48.402;9.994;2024-03-02T13:47:04;30.70;33.90
13585;DHT22;6863;48.402;9.994;2024-03-02T13:49:30;31.00;33.60
13585;DHT22;6863;48.402;9.994;2024-03-02T13:52:07;30.50;34.80
13585;DHT22;6863;48.402;9.994;2024-03-02T13:54:38;30.00;34.80
13585;DHT22;6863;48.402;9.994;2024-03-02T13:57:04;29.70;35.70
13585;DHT22;6863;48.402;9.994;2024-03-02T13:59:30;30.50;34.40
13585;DHT22;6863;48.402;9.994;2024-03-02T14:01:56;29.90;35.20
13585;DHT22;6863;48.402;9.994;2024-03-02T14:04:21;29.60;35.30
13585;DHT22;6863;48.402;9.994;2024-03-02T14:06:46;29.80;35.60
13585;DHT22;6863;48.402;9.994;2024-03-02T14:09:13;30.30;34.60
13585;DHT22;6863;48.402;9.994;2024-03-02T14:11:38;28.80;35.80
13585;DHT22;6863;48.402;9.994;2024-03-02T14:14:04;28.70;36.80
13585;DHT22;6863;48.402;9.994;2024-03-02T14:16:29;29.90;35.30
13585;DHT22;6863;48.402;9.994;2024-03-02T14:18:55;29.90;35.80
13585;DHT22;6863;48.402;9.994;2024-03-02T14:21:20;30.40;34.60
13585;DHT22;6863;48.402;9.994;2024-03-02T14:23:46;31.20;33.60
13585;DHT22;6863;48.402;9.994;2024-03-02T14:26:11;30.20;33.90
13585;DHT22;6863;48.402;9.994;2024-03-02T14:28:37;29.50;35.20
13585;DHT22;6863;48.402;9.994;2024-03-02T14:31:02;29.60;35.60
13585;DHT22;6863;48.402;9.994;2024-03-02T14:33:28;29.20;35.70
13585;DHT22;6863;48.402;9.994;2024-03-02T14:35:54;28.50;36.70
13585;DHT22;6863;48.402;9.994;2024-03-02T14:38:19;29.30;35.80
13585;DHT22;6863;48.402;9.994;2024-03-02T14:40:45;30.50;33.50
13585;DHT22;6863;48.402;9.994;2024-03-02T14:43:10;29.70;34.30
13585;DHT22;6863;48.402;9.994;2024-03-02T14:45:36;28.10;35.70
13585;DHT22;6863;48.402;9.994;2024-03-02T14:48:02;28.20;36.80
13585;DHT22;6863;48.402;9.994;2024-03-02T14:50:28;28.80;35.40
13585;DHT22;6863;48.402;9.994;2024-03-02T14:52:53;28.40;36.00
13585;DHT22;6863;48.402;9.994;2024-03-02T14:55:19;28.50;35.40
13585;DHT22;6863;48.402;9.994;2024-03-02T14:57:45;29.30;35.40
13585;DHT22;6863;48.402;9.994;2024-03-02T15:00:10;29.30;35.10
13585;DHT22;6863;48.402;9.994;2024-03-02T15:02:39;28.80;35.60
13585;DHT22;6863;48.402;9.994;2024-03-02T15:05:05;29.50;34.50
13585;DHT22;6863;48.402;9.994;2024-03-02T15:07:31;27.70;36.70
13585;DHT22;6863;48.402;9.994;2024-03-02T15:09:57;26.20;39.10
13585;DHT22;6863;48.402;9.994;2024-03-02T15:12:23;25.40;41.20
13585;DHT22;6863;48.402;9.994;2024-03-02T15:14:48;25.40;41.10
13585;DHT22;6863;48.402;9.994;2024-03-02T15:17:14;26.00;40.70
13585;DHT22;6863;48.402;9.994;2024-03-02T15:19:44;26.10;40.40
13585;DHT22;6863;48.402;9.994;2024-03-02T15:22:10;25.80;40.00
13585;DHT22;6863;48.402;9.994;2024-03-02T15:24:36;25.30;41.50
13585;DHT22;6863;48.402;9.994;2024-03-02T15:27:03;24.40;43.00
13585;DHT22;6863;48.402;9.994;2024-03-02T15:29:30;23.30;44.00
13585;DHT22;6863;48.402;9.994;2024-03-02T15:31:57;22.60;45.70
13585;DHT22;6863;48.402;9.994;2024-03-02T15:34:22;22.10;45.90
13585;DHT22;6863;48.402;9.994;2024-03-02T15:36:49;21.20;47.50
13585;DHT22;6863;48.402;9.994;2024-03-02T15:39:14;20.90;48.30
13585;DHT22;6863;48.402;9.994;2024-03-02T15:41:40;19.70;49.90
13585;DHT22;6863;48.402;9.994;2024-03-02T15:44:06;19.30;51.90
13585;DHT22;6863;48.402;9.994;2024-03-02T15:46:33;18.60;53.50
13585;DHT22;6863;48.402;9.994;2024-03-02T15:48:59;18.00;55.50
13585;DHT22;6863;48.402;9.994;2024-03-02T15:51:26;17.80;56.30
13585;DHT22;6863;48.402;9.994;2024-03-02T15:53:51;17.60;57.30
13585;DHT22;6863;48.402;9.994;2024-03-02T15:56:17;17.30;57.50
13585;DHT22;6863;48.402;9.994;2024-03-02T15:58:43;17.00;58.90
13585;DHT22;6863;48.402;9.994;2024-03-02T16:01:08;16.80;58.80